Terminal Aerodrome Forecast
Issued by NWS Portland, OR

Home | Current Version | Previous Version | Text Only | Print | Product List | Glossary On
Versions: 1 2 3 4 5 6 7 8 9 10 11 12 13 14 15 16 17 18 19 20 21 22 23 24 25 26 27 28 29 30 31 32 33 34 35 36
000
FTUS46 KPQR 240547 CCA
TAFTTD
TAF COR
KTTD 240547Z 2406/2506 22009KT P6SM VCSH SCT025 BKN050 BKN080
     FM241000 23009KT P6SM -SHRA SCT025 OVC040
      TEMPO 2412/2416 BKN025 OVC040
     FM241800 26007KT P6SM SCT040 BKN060=

USA.gov is the U.S. government's official web portal to all federal, state and local government web resources and services.